createdAt,value
2018-03-27T08:58:44.572Z,86.90
2018-03-27T08:59:23.719Z,86.66
2018-03-27T09:00:23.771Z,85.57
2018-03-27T09:01:23.177Z,85.57
2018-03-27T09:02:23.166Z,84.48
2018-03-27T09:37:20.643Z,71.94
2018-03-27T11:21:01.795Z,61.07
2018-03-27T11:21:47.679Z,60.30
2018-03-27T11:22:47.707Z,59.48
2018-03-27T11:23:47.704Z,59.57
2018-03-27T11:24:47.705Z,58.62
2018-03-27T11:44:36.583Z,52.24
2018-03-27T11:45:11.100Z,53.51
2018-03-27T11:46:25.632Z,51.70
2018-03-27T11:47:11.090Z,51.03
2018-03-27T11:48:11.097Z,51.03
2018-03-27T11:49:11.143Z,50.45
2018-03-27T11:50:11.120Z,49.40
2018-03-27T12:53:33.409Z,74.58
2018-03-27T12:54:11.319Z,74.99
2018-03-27T12:55:11.331Z,71.57
2018-03-27T12:56:11.339Z,70.43
2018-03-27T12:57:13.297Z,76.21
2018-03-27T12:58:11.355Z,78.03
2018-03-27T12:59:11.350Z,77.25
2018-03-27T13:00:11.370Z,67.36
2018-03-27T13:03:12.152Z,64.59
2018-03-27T13:03:43.134Z,67.70
2018-03-27T13:04:43.172Z,70.33
2018-03-27T13:05:43.156Z,72.24
2018-03-27T13:06:52.725Z,72.65
2018-03-27T13:07:43.173Z,75.01
2018-03-27T13:08:43.174Z,72.34
2018-03-27T13:09:43.186Z,70.86
2018-03-27T13:10:43.201Z,68.18
2018-03-27T13:11:54.193Z,63.20
2018-03-27T13:12:43.234Z,61.93
2018-03-27T13:13:43.234Z,64.75
2018-03-27T13:14:43.249Z,64.43
2018-03-27T13:15:43.232Z,65.45
2018-03-27T13:16:43.233Z,67.50
2018-03-27T13:18:22.694Z,68.17
2018-03-27T13:18:43.981Z,67.57
2018-03-27T13:19:55.627Z,65.51
2018-03-27T13:20:43.271Z,63.13
2018-03-27T13:22:05.509Z,63.07
2018-03-27T13:22:43.318Z,60.21
2018-03-27T13:23:43.315Z,58.81
2018-03-27T13:24:43.300Z,58.46
2018-03-27T13:25:43.317Z,58.07
2018-03-27T13:26:46.738Z,58.75
2018-03-27T13:27:43.341Z,60.33
2018-03-27T13:28:43.368Z,62.88
2018-03-27T13:29:43.339Z,65.10
2018-03-27T13:30:43.357Z,64.24
2018-03-27T13:59:40.393Z,59.79
2018-03-27T14:00:17.344Z,59.31
2018-03-27T14:02:50.608Z,55.87
2018-03-27T14:03:49.049Z,54.27
2018-03-27T14:04:49.026Z,54.08
2018-03-27T14:05:49.007Z,53.13
2018-03-27T14:11:56.757Z,50.21
2018-03-27T14:12:25.327Z,49.80
2018-03-27T14:13:24.468Z,51.24
2018-03-27T14:14:24.475Z,48.99
2018-03-27T14:15:24.476Z,49.52
2018-03-27T14:19:29.067Z,54.14
2018-03-27T14:20:27.999Z,56.24
2018-03-27T14:24:40.044Z,53.12
2018-03-27T14:25:31.512Z,53.59
2018-03-27T14:27:11.025Z,53.97
2018-03-27T14:27:31.521Z,53.47
2018-03-27T14:28:32.205Z,56.74
2018-03-27T14:29:31.557Z,55.05
2018-03-27T14:30:31.562Z,53.53
2018-03-27T14:49:05.641Z,53.17
2018-03-27T14:49:44.442Z,51.54
2018-03-27T14:50:46.613Z,50.31
2018-03-27T14:51:44.467Z,50.02
2018-03-27T14:52:44.475Z,50.40
2018-03-27T14:53:44.482Z,52.24
2018-03-27T14:54:44.500Z,50.62
2018-03-27T15:01:56.552Z,49.18
2018-03-27T15:02:52.006Z,49.78
2018-03-27T15:03:52.014Z,49.98
2018-03-27T15:04:52.039Z,50.07
2018-03-27T15:06:00.026Z,48.57
2018-03-27T15:06:52.046Z,48.85
2018-03-27T15:07:52.052Z,49.40
2018-03-27T15:08:52.062Z,49.78
2018-03-27T15:09:52.070Z,51.31
2018-03-27T15:29:14.977Z,53.02
2018-03-27T15:29:36.811Z,53.97
2018-03-27T15:30:36.807Z,54.00
2018-03-27T15:31:36.817Z,53.72
2018-03-27T15:32:36.810Z,53.05
2018-03-27T15:33:36.820Z,52.48
2018-03-27T16:17:49.556Z,74.69
2018-03-27T16:18:27.948Z,75.07
2018-03-27T16:19:27.915Z,76.21
2018-03-27T16:21:59.652Z,76.69
2018-03-27T16:22:59.727Z,76.88
2018-03-27T16:23:59.613Z,75.74
2018-03-27T16:24:59.595Z,75.36
2018-03-27T16:27:50.918Z,76.69
2018-03-27T16:28:33.133Z,75.64
2018-03-27T16:29:31.424Z,74.88
2018-03-27T16:33:44.392Z,73.65
2018-03-27T16:34:35.221Z,73.88
2018-03-27T16:38:40.689Z,73.18
2018-03-27T16:39:39.655Z,74.41
2018-03-27T16:42:39.424Z,74.41
2018-03-27T16:43:11.447Z,74.60
2018-03-27T16:44:11.439Z,74.51
2018-03-27T16:45:11.413Z,74.31
2018-03-27T16:49:46.904Z,75.55
2018-03-27T16:50:14.840Z,76.40
2018-03-27T16:54:20.756Z,76.69
2018-03-27T16:55:39.167Z,76.40
2018-03-27T16:56:18.190Z,76.50
2018-03-27T16:57:28.014Z,76.50
2018-03-27T16:58:18.173Z,76.75
2018-03-27T16:59:18.209Z,77.03
2018-03-27T17:00:18.167Z,77.12
2018-03-27T17:01:18.811Z,77.03
2018-03-27T17:02:18.169Z,77.41
2018-03-27T17:03:18.168Z,77.51
2018-03-27T17:04:18.177Z,77.51
2018-03-27T17:05:18.167Z,77.31
2018-03-27T17:07:59.387Z,78.27
2018-03-27T17:08:49.865Z,78.17
2018-03-27T17:09:49.860Z,78.08
2018-03-27T17:16:57.344Z,77.31
2018-03-27T17:17:57.303Z,77.31
2018-03-27T17:18:57.296Z,77.41
2018-03-27T17:19:57.306Z,77.89
2018-03-27T17:22:29.087Z,77.89
2018-03-27T17:23:29.947Z,78.17
2018-03-27T17:24:29.023Z,77.98
2018-03-27T17:25:29.182Z,78.64
2018-03-27T17:40:54.773Z,79.88
2018-03-27T17:41:19.678Z,79.50
2018-03-27T17:42:19.677Z,79.84
2018-03-27T17:43:19.675Z,79.65
2018-03-27T17:44:19.688Z,79.55
2018-03-27T17:45:19.675Z,79.36
2018-03-27T17:46:37.802Z,79.17
2018-03-27T17:47:19.719Z,79.17
2018-03-27T17:48:19.677Z,79.65
2018-03-27T17:49:19.893Z,79.55
2018-03-27T17:50:19.738Z,80.03
2018-03-27T17:52:57.451Z,79.94
2018-03-27T17:53:54.389Z,80.03
2018-03-27T17:54:54.467Z,80.22
2018-03-27T17:55:54.349Z,79.65
2018-03-27T19:18:13.254Z,79.94
2018-03-27T19:19:12.724Z,79.94
2018-03-27T19:20:12.669Z,79.84
2018-03-27T19:27:41.954Z,79.36
2018-03-27T19:28:40.897Z,79.36
2018-03-27T19:29:40.374Z,79.17
2018-03-27T19:30:40.282Z,79.55
2018-03-27T19:33:21.100Z,79.65
2018-03-27T19:34:12.738Z,79.74
2018-03-27T19:35:13.311Z,79.74
2018-03-27T19:36:13.253Z,79.74
2018-03-27T19:37:13.145Z,79.65
2018-03-27T19:38:12.917Z,79.55
2018-03-27T19:39:12.942Z,80.32
2018-03-27T19:40:13.505Z,79.94
2018-03-27T19:41:13.267Z,79.65
2018-03-27T19:42:27.555Z,79.74
2018-03-27T19:43:12.897Z,79.17
2018-03-27T19:44:12.776Z,79.27
2018-03-27T19:45:14.150Z,79.27
2018-03-27T19:46:13.541Z,79.27
2018-03-27T19:47:27.603Z,79.17
2018-03-27T19:48:13.090Z,78.89
2018-03-27T19:49:13.310Z,79.46
2018-03-27T19:50:13.074Z,79.36
2018-03-27T19:51:13.006Z,79.36
2018-03-27T19:57:09.392Z,78.99
2018-03-27T19:59:39.901Z,79.46
2018-03-27T20:00:38.239Z,78.70
2018-03-27T20:01:38.233Z,78.89
2018-03-27T20:05:42.723Z,79.46
2018-03-27T20:06:41.558Z,78.89
2018-03-27T20:28:17.805Z,79.46
2018-03-27T20:28:39.668Z,79.27
2018-03-27T20:29:39.685Z,78.99
2018-03-27T20:30:39.710Z,79.27
2018-03-27T20:31:39.647Z,78.99
2018-03-27T20:32:53.817Z,79.36
2018-03-27T20:33:39.635Z,79.46
2018-03-27T20:34:39.634Z,79.36
2018-03-27T20:35:39.663Z,79.08
2018-03-27T20:36:39.657Z,79.36
2018-03-27T20:39:32.385Z,79.17
2018-03-27T20:40:11.286Z,79.55
2018-03-27T20:41:11.284Z,79.27
2018-03-27T20:47:10.213Z,80.13
2018-03-27T20:47:46.232Z,80.22
2018-03-27T20:48:46.230Z,79.55
2018-03-27T20:49:46.236Z,80.03
2018-03-27T20:50:46.230Z,80.03
2018-03-27T20:51:46.228Z,80.51
2018-03-27T20:57:21.762Z,80.69
2018-03-27T20:58:21.643Z,80.69
2018-03-27T20:59:21.618Z,80.13
2018-03-27T21:00:21.640Z,81.26
2018-03-27T21:01:43.249Z,80.98
2018-03-27T21:02:21.614Z,81.07
2018-03-27T21:03:21.675Z,80.60
2018-03-27T21:04:21.600Z,80.79
2018-03-27T21:05:21.608Z,81.07
2018-03-27T21:08:05.894Z,80.79
2018-03-27T21:08:53.335Z,80.22
2018-03-27T21:09:53.327Z,80.03
2018-03-27T21:10:53.332Z,80.41
2018-03-27T21:56:36.867Z,79.74
2018-03-27T21:57:15.252Z,79.61
2018-03-27T22:46:51.773Z,81.51
2018-03-27T22:47:51.753Z,81.41
2018-03-27T22:48:51.897Z,80.94
2018-03-27T22:49:51.744Z,81.51
2018-03-27T22:50:51.737Z,81.04
2018-03-27T22:51:51.722Z,81.32
2018-03-27T22:52:51.720Z,81.32
2018-03-27T22:55:24.973Z,81.85
2018-03-27T22:56:23.353Z,81.70
2018-03-27T22:57:23.359Z,81.32
2018-03-27T23:01:33.677Z,81.37
2018-03-27T23:02:26.965Z,81.27
2018-03-27T23:08:20.045Z,81.37
2018-03-27T23:09:01.929Z,81.04
2018-03-27T23:10:01.923Z,81.32
2018-03-27T23:11:01.918Z,81.41
2018-03-27T23:12:01.918Z,80.94
2018-03-27T23:13:01.908Z,80.84
2018-03-27T23:18:39.376Z,81.13
2018-03-27T23:19:36.816Z,80.80
2018-03-27T23:20:36.828Z,81.32
2018-03-27T23:21:36.792Z,81.27
2018-03-27T23:22:36.792Z,81.27
